Terminal Aerodrome Forecast
Issued by NWS Rapid City, SD

Home | Current Version | Previous Version | Text Only | Print | Product List | Glossary On
Versions: 1 2 3 4 5 6 7 8 9 10 11 12 13 14 15 16 17 18
000
FTUS43 KUNR 291120
TAFRAP
TAF
KRAP 291120Z 2912/3012 33016KT 4SM -SHRA BR OVC012
     FM291900 35014KT P6SM BKN025
     FM300000 01009KT P6SM SCT250
     FM300600 15005KT P6SM SKC=

USA.gov is the U.S. government's official web portal to all federal, state and local government web resources and services.